Carrier Princess — CZ3582 — position and weather

sailwx.info

Track history (hours):
 
Tides and Currents Weather Stations Pressure Air Temp Water Temp Dewpoint Dewpoint Depression Visibility Wind Speed Wind Dir Waves Ship Positions

Carrier Princess

Last reported at 2016-Feb-07 00:34 UTC. Time now 2016-Feb-07 01:12 UTC.
Position N 49°09' W 123°02'.

Length 112 m; draft 3 m.

Type: Cargo ship. MMSI: 316003656.

Date/timePositionNaut miles runAvg speedWind from/ knotsBaromVisibWave heightAir tempDewpointWater temp
2016-Feb-07 00:34N 49°09' W 123°02'0 0.0
2016-Feb-06 23:33N 49°09' W 123°02'0 0.0
2016-Feb-06 22:33N 49°09' W 123°02'1212.0
2016-Feb-06 21:34N 49°05' W 123°20'1313.2
2016-Feb-06 20:34N 48°52' W 123°18'1211.5
2016-Feb-06 19:34N 48°41' W 123°24'0 0.0
2016-Feb-06 13:03N 48°41' W 123°24'2 4.7
2016-Feb-06 12:33N 48°43' W 123°21'1111.2
2016-Feb-06 11:33N 48°54' W 123°18'1313.1
2016-Feb-06 10:34N 49°07' W 123°17'1010.1
2016-Feb-06 09:33N 49°09' W 123°02'0 0.0
2016-Feb-06 08:33N 49°09' W 123°02'0 0.3
2016-Feb-06 07:33N 49°09' W 123°03'1111.4
2016-Feb-06 06:33N 49°06' W 123°19'1313.4
2016-Feb-06 05:33N 48°52' W 123°18'1211.5
2016-Feb-06 04:33N 48°41' W 123°24'0 0.1
2016-Feb-06 03:26N 48°41' W 123°24'2 2.6
2016-Feb-06 02:33N 48°42' W 123°21'1212.6
2016-Feb-06 01:33N 48°55' W 123°18'1312.5
2016-Feb-06 00:34N 49°07' W 123°16'9 9.3
2016-Feb-05 23:34N 49°09' W 123°02'0 0.0
2016-Feb-05 22:34N 49°09' W 123°02'1110.9
2016-Feb-05 21:33N 49°06' W 123°18'1313.4
2016-Feb-05 20:33N 48°53' W 123°18'1212.0
2016-Feb-05 19:33N 48°41' W 123°24'0 0.0
2016-Feb-05 13:04N 48°41' W 123°24'2 4.2
2016-Feb-05 12:33N 48°42' W 123°21'1212.5
2016-Feb-05 11:33N 48°55' W 123°18'1212.3
2016-Feb-05 10:34N 49°07' W 123°17'10 9.7
2016-Feb-05 09:33N 49°09' W 123°02'0 0.0
2016-Feb-05 08:33N 49°09' W 123°02'0 0.2
2016-Feb-05 07:33N 49°09' W 123°02'1111.3
2016-Feb-05 06:33N 49°06' W 123°19'1313.4
2016-Feb-05 05:33N 48°52' W 123°18'1211.6
2016-Feb-05 04:33N 48°41' W 123°24'0 0.2
2016-Feb-05 03:33N 48°41' W 123°24'2 2.0
2016-Feb-05 02:33N 48°42' W 123°22'1313.1
2016-Feb-05 01:34N 48°55' W 123°18'1313.0
2016-Feb-05 00:34N 49°08' W 123°15'8 8.4
2016-Feb-04 23:33N 49°09' W 123°02'0 0.0
2016-Feb-04 22:33N 49°09' W 123°02'1110.6
2016-Feb-04 21:33N 49°06' W 123°18'1313.4
2016-Feb-04 20:33N 48°53' W 123°18'1212.1
2016-Feb-04 19:32N 48°41' W 123°24'0 0.0
2016-Feb-04 18:33N 48°41' W 123°24'0 0.0
2016-Feb-04 17:33N 48°41' W 123°24'0 0.0
2016-Feb-04 16:33N 48°41' W 123°24'0 0.0
2016-Feb-04 15:33N 48°41' W 123°24'0 0.0
2016-Feb-04 14:33N 48°41' W 123°24'0 0.0
2016-Feb-04 13:33N 48°41' W 123°24'3 3.3
2016-Feb-04 12:33N 48°43' W 123°21'1212.3
2016-Feb-04 11:33N 48°56' W 123°18'1212.1
2016-Feb-04 10:34N 49°08' W 123°15'9 8.5
2016-Feb-04 09:34N 49°09' W 123°02'0 0.0
2016-Feb-04 08:33N 49°09' W 123°02'0 0.2
2016-Feb-04 07:34N 49°09' W 123°02'1111.4
2016-Feb-04 06:33N 49°06' W 123°19'1413.8
2016-Feb-04 05:34N 48°52' W 123°18'1110.4
2016-Feb-04 04:28N 48°41' W 123°24'0 0.0
2016-Feb-04 03:33N 48°41' W 123°24'3 2.6
2016-Feb-04 02:33N 48°43' W 123°21'1312.7
2016-Feb-04 01:33N 48°55' W 123°18'1312.8
2016-Feb-04 00:34N 49°08' W 123°14'8 8.1
2016-Feb-03 23:33N 49°09' W 123°02'0 0.0
2016-Feb-03 22:33N 49°09' W 123°02'1010.3
2016-Feb-03 21:34N 49°06' W 123°18'1413.6
2016-Feb-03 20:33N 48°53' W 123°18'12 2.8
2016-Feb-03 16:07N 48°41' W 123°24'0 0.0
2016-Feb-03 13:05N 48°41' W 123°24'3 5.5
2016-Feb-03 12:33N 48°43' W 123°21'1212.3
2016-Feb-03 11:33N 48°55' W 123°19'1211.9
2016-Feb-03 10:33N 49°07' W 123°16'9 9.5
2016-Feb-03 09:33N 49°09' W 123°02'0 0.0
2016-Feb-03 08:33N 49°09' W 123°02'0 0.3
2016-Feb-03 07:33N 49°09' W 123°02'1212.1
2016-Feb-03 06:34N 49°05' W 123°20'1313.4
2016-Feb-03 05:33N 48°52' W 123°20'11 8.6
2016-Feb-03 04:19N 48°41' W 123°24'0 0.0
2016-Feb-03 03:33N 48°41' W 123°24'2 1.7
2016-Feb-03 02:33N 48°42' W 123°22'1313.1
2016-Feb-03 01:33N 48°55' W 123°18'1312.8
2016-Feb-03 00:33N 49°07' W 123°15'9 8.9
2016-Feb-02 23:34N 49°09' W 123°02'0 0.0
2016-Feb-02 22:34N 49°09' W 123°02'1010.3
2016-Feb-02 21:33N 49°06' W 123°17'1413.9
2016-Feb-02 20:34N 48°53' W 123°18'1212.1
2016-Feb-02 19:33N 48°41' W 123°24'0 0.0
2016-Feb-02 18:24N 48°41' W 123°24'0 0.0
2016-Feb-02 17:20N 48°41' W 123°24'0 0.0
2016-Feb-02 15:31N 48°41' W 123°24'0 0.0
2016-Feb-02 14:30N 48°41' W 123°24'2 1.1
2016-Feb-02 12:32N 48°42' W 123°22'1312.8
2016-Feb-02 11:33N 48°55' W 123°18'1312.5
2016-Feb-02 10:33N 49°07' W 123°16'10 9.5
2016-Feb-02 09:33N 49°09' W 123°02'0 0.0
2016-Feb-02 08:33N 49°09' W 123°02'0 0.2
2016-Feb-02 07:33N 49°09' W 123°02'1211.8
2016-Feb-02 06:33N 49°05' W 123°20'1313.3
2016-Feb-02 05:34N 48°52' W 123°18'1111.0
2016-Feb-02 04:32N 48°42' W 123°24'0 0.2
2016-Feb-02 03:33N 48°41' W 123°24'1 1.2
2016-Feb-02 02:33N 48°42' W 123°23'1313.2
2016-Feb-02 01:33N 48°54' W 123°18'1413.8
2016-Feb-02 00:34N 49°08' W 123°14'8 7.6
2016-Feb-01 23:33N 49°09' W 123°02'0 0.0
2016-Feb-01 22:33N 49°09' W 123°02'1110.6
2016-Feb-01 21:34N 49°06' W 123°18'1514.8
2016-Feb-01 20:33N 48°51' W 123°20'1110.5
2016-Feb-01 19:33N 48°41' W 123°24'0 0.0
2016-Feb-01 18:33N 48°41' W 123°24'0 0.0
2016-Feb-01 17:33N 48°41' W 123°24'0 0.0
2016-Feb-01 16:32N 48°41' W 123°24'0 0.0
2016-Feb-01 15:31N 48°41' W 123°24'0 0.0
2016-Feb-01 14:28N 48°41' W 123°24'0 0.0
2016-Feb-01 13:33N 48°41' W 123°24'0 0.0
2016-Feb-01 12:32N 48°41' W 123°24'0 0.0
2016-Feb-01 11:33N 48°41' W 123°24'4 4.4
2016-Feb-01 10:34N 48°45' W 123°21'1110.7
2016-Feb-01 09:33N 48°56' W 123°19'1110.9
2016-Feb-01 08:33N 49°06' W 123°18'1010.4
2016-Feb-01 07:33N 49°09' W 123°02'0 0.1
2016-Feb-01 06:34N 49°09' W 123°02'0 0.0
2016-Feb-01 05:33N 49°09' W 123°02'0 0.0
2016-Feb-01 04:34N 49°09' W 123°02'0 0.0
2016-Feb-01 03:33N 49°09' W 123°02'0 0.0
2016-Feb-01 02:33N 49°09' W 123°02'0 0.0
2016-Feb-01 01:33N 49°09' W 123°02'0 0.0
2016-Feb-01 00:33N 49°09' W 123°02'0 0.0
2016-Jan-31 23:33N 49°09' W 123°02'0 0.0
2016-Jan-31 22:33N 49°09' W 123°02'0 0.0
2016-Jan-31 21:33N 49°09' W 123°02'0 0.0
2016-Jan-31 20:33N 49°09' W 123°02'0 0.0
2016-Jan-31 19:33N 49°09' W 123°02'0 0.0
2016-Jan-31 18:34N 49°09' W 123°02'0 0.0
2016-Jan-31 17:33N 49°09' W 123°02'2 2.3
2016-Jan-31 16:33N 49°07' W 123°05'1110.6
2016-Jan-31 15:33N 49°03' W 123°20'1212.4
2016-Jan-31 14:33N 48°50' W 123°21'9 9.2
2016-Jan-31 13:33N 48°41' W 123°24'0 0.1
2016-Jan-31 12:23N 48°41' W 123°24'0 0.0
2016-Jan-31 11:32N 48°41' W 123°24'7 7.1
2016-Jan-31 10:33N 48°48' W 123°21'9 9.1
2016-Jan-31 09:34N 48°57' W 123°18'10 9.9
2016-Jan-31 08:33N 49°07' W 123°17'1010.0
2016-Jan-31 07:33N 49°09' W 123°02'0 0.1
2016-Jan-31 06:33N 49°09' W 123°02'0 0.0
2016-Jan-31 05:33N 49°09' W 123°02'0 0.0
2016-Jan-31 04:33N 49°09' W 123°02'0 0.0
2016-Jan-31 03:33N 49°09' W 123°02'0 0.0
2016-Jan-31 02:33N 49°09' W 123°02'0 0.0
2016-Jan-31 01:34N 49°09' W 123°02'0 0.0
2016-Jan-31 00:33N 49°09' W 123°02'0 0.0
2016-Jan-30 23:33N 49°09' W 123°02'0 0.0
2016-Jan-30 22:33N 49°09' W 123°02'1010.2
2016-Jan-30 21:33N 49°07' W 123°17'1413.9
2016-Jan-30 20:33N 48°53' W 123°18'1212.1
2016-Jan-30 19:34N 48°41' W 123°24'0 0.0
2016-Jan-30 18:12N 48°41' W 123°24'0 0.0
2016-Jan-30 17:32N 48°41' W 123°24'0 0.0
2016-Jan-30 15:18N 48°41' W 123°24'0 0.0
2016-Jan-30 13:22N 48°41' W 123°24'0 0.2
2016-Jan-30 12:33N 48°41' W 123°24'1111.4
2016-Jan-30 11:33N 48°52' W 123°18'1514.6
2016-Jan-30 10:33N 49°07' W 123°17'1010.1
2016-Jan-30 09:33N 49°09' W 123°02'0 0.0
2016-Jan-30 08:34N 49°09' W 123°02'0 0.0
2016-Jan-30 07:33N 49°09' W 123°02'1110.7
2016-Jan-30 06:34N 49°06' W 123°18'1312.9
2016-Jan-30 05:34N 48°53' W 123°18'1312.6
2016-Jan-30 04:34N 48°41' W 123°24'0 0.1
2016-Jan-30 03:17N 48°41' W 123°24'1 1.6
2016-Jan-30 02:33N 48°42' W 123°23'1211.6
2016-Jan-30 01:34N 48°53' W 123°18'1414.3
2016-Jan-30 00:34N 49°07' W 123°16'9 9.5
2016-Jan-29 23:33N 49°09' W 123°02'0 0.0
2016-Jan-29 22:33N 49°09' W 123°02'1010.3
2016-Jan-29 21:33N 49°06' W 123°18'1414.5
2016-Jan-29 20:33N 48°52' W 123°18'11 8.0
2016-Jan-29 19:08N 48°41' W 123°24'0 0.0
2016-Jan-29 18:32N 48°41' W 123°24'0 0.0
2016-Jan-29 17:31N 48°41' W 123°24'0 0.0
2016-Jan-29 16:31N 48°41' W 123°24'0 0.0
2016-Jan-29 15:20N 48°41' W 123°24'0 0.0
2016-Jan-29 14:32N 48°41' W 123°24'0 0.0
2016-Jan-29 13:31N 48°41' W 123°24'1 1.2
2016-Jan-29 12:33N 48°42' W 123°23'1312.8
2016-Jan-29 11:34N 48°54' W 123°18'1313.3
2016-Jan-29 10:34N 49°07' W 123°16'9 9.1
2016-Jan-29 09:33N 49°09' W 123°02'0 0.0
2016-Jan-29 08:33N 49°09' W 123°02'0 0.0
2016-Jan-29 07:34N 49°09' W 123°02'10 9.6
2016-Jan-29 06:33N 49°07' W 123°17'1414.3
2016-Jan-29 05:33N 48°53' W 123°18'1211.9
2016-Jan-29 04:33N 48°41' W 123°24'0 0.0
2016-Jan-29 03:33N 48°41' W 123°24'0 0.3
2016-Jan-29 02:33N 48°42' W 123°24'1212.0
2016-Jan-29 01:33N 48°53' W 123°18'1414.2
2016-Jan-29 00:33N 49°07' W 123°17'10 9.5
2016-Jan-28 23:33N 49°09' W 123°02'0 0.0
2016-Jan-28 22:33N 49°09' W 123°02'8 8.1
2016-Jan-28 21:33N 49°08' W 123°15'1413.7
2016-Jan-28 20:33N 48°54' W 123°18'1313.4
2016-Jan-28 19:34N 48°41' W 123°24'0 0.2
2016-Jan-28 18:28N 48°41' W 123°24'0 0.0
2016-Jan-28 17:32N 48°41' W 123°24'0 0.0
2016-Jan-28 16:30N 48°41' W 123°24'0 0.0
2016-Jan-28 15:33N 48°41' W 123°24'0 0.0
2016-Jan-28 14:33N 48°41' W 123°24'0 0.0
2016-Jan-28 13:33N 48°41' W 123°24'3 2.7
2016-Jan-28 12:33N 48°43' W 123°21'9 9.2
2016-Jan-28 11:34N 48°52' W 123°19'1313.2
2016-Jan-28 10:33N 49°05' W 123°20'1312.6
2016-Jan-28 09:33N 49°09' W 123°02'0 0.0
2016-Jan-28 08:33N 49°09' W 123°02'2 1.6
2016-Jan-28 07:33N 49°08' W 123°04'1110.6
2016-Jan-28 06:33N 49°05' W 123°20'1313.1
2016-Jan-28 05:34N 48°51' W 123°21'10 9.6
2016-Jan-28 04:29N 48°41' W 123°24'0 0.0
2016-Jan-28 03:33N 48°41' W 123°24'2 1.8
2016-Jan-28 02:33N 48°42' W 123°22'1313.1
2016-Jan-28 01:34N 48°55' W 123°18'  
Track history (hours):
 
Tides and Currents Weather Stations Pressure Air Temp Water Temp Dewpoint Dewpoint Depression Visibility Wind Speed Wind Dir Waves Ship Positions

Carrier Princess

Last reported at 2016-Feb-07 00:34 UTC. Time now 2016-Feb-07 01:12 UTC.
Position N 49°09' W 123°02'.

Length 112 m; draft 3 m.

Type: Cargo ship. MMSI: 316003656.

Date/timePositionNaut miles runAvg speedWind from/ knotsBaromVisibWave heightAir tempDewpointWater temp
2016-Feb-07 00:34N 49°09' W 123°02'0 0.0
2016-Feb-06 23:33N 49°09' W 123°02'0 0.0
2016-Feb-06 22:33N 49°09' W 123°02'1212.0
2016-Feb-06 21:34N 49°05' W 123°20'1313.2
2016-Feb-06 20:34N 48°52' W 123°18'1211.5
2016-Feb-06 19:34N 48°41' W 123°24'0 0.0
2016-Feb-06 13:03N 48°41' W 123°24'2 4.7
2016-Feb-06 12:33N 48°43' W 123°21'1111.2
2016-Feb-06 11:33N 48°54' W 123°18'1313.1
2016-Feb-06 10:34N 49°07' W 123°17'1010.1
2016-Feb-06 09:33N 49°09' W 123°02'0 0.0
2016-Feb-06 08:33N 49°09' W 123°02'0 0.3
2016-Feb-06 07:33N 49°09' W 123°03'1111.4
2016-Feb-06 06:33N 49°06' W 123°19'1313.4
2016-Feb-06 05:33N 48°52' W 123°18'1211.5
2016-Feb-06 04:33N 48°41' W 123°24'0 0.1
2016-Feb-06 03:26N 48°41' W 123°24'2 2.6
2016-Feb-06 02:33N 48°42' W 123°21'1212.6
2016-Feb-06 01:33N 48°55' W 123°18'1312.5
2016-Feb-06 00:34N 49°07' W 123°16'9 9.3
2016-Feb-05 23:34N 49°09' W 123°02'0 0.0
2016-Feb-05 22:34N 49°09' W 123°02'1110.9
2016-Feb-05 21:33N 49°06' W 123°18'1313.4
2016-Feb-05 20:33N 48°53' W 123°18'1212.0
2016-Feb-05 19:33N 48°41' W 123°24'0 0.0
2016-Feb-05 13:04N 48°41' W 123°24'2 4.2
2016-Feb-05 12:33N 48°42' W 123°21'1212.5
2016-Feb-05 11:33N 48°55' W 123°18'1212.3
2016-Feb-05 10:34N 49°07' W 123°17'10 9.7
2016-Feb-05 09:33N 49°09' W 123°02'0 0.0
2016-Feb-05 08:33N 49°09' W 123°02'0 0.2
2016-Feb-05 07:33N 49°09' W 123°02'1111.3
2016-Feb-05 06:33N 49°06' W 123°19'1313.4
2016-Feb-05 05:33N 48°52' W 123°18'1211.6
2016-Feb-05 04:33N 48°41' W 123°24'0 0.2
2016-Feb-05 03:33N 48°41' W 123°24'2 2.0
2016-Feb-05 02:33N 48°42' W 123°22'1313.1
2016-Feb-05 01:34N 48°55' W 123°18'1313.0
2016-Feb-05 00:34N 49°08' W 123°15'8 8.4
2016-Feb-04 23:33N 49°09' W 123°02'0 0.0
2016-Feb-04 22:33N 49°09' W 123°02'1110.6
2016-Feb-04 21:33N 49°06' W 123°18'1313.4
2016-Feb-04 20:33N 48°53' W 123°18'1212.1
2016-Feb-04 19:32N 48°41' W 123°24'0 0.0
2016-Feb-04 18:33N 48°41' W 123°24'0 0.0
2016-Feb-04 17:33N 48°41' W 123°24'0 0.0
2016-Feb-04 16:33N 48°41' W 123°24'0 0.0
2016-Feb-04 15:33N 48°41' W 123°24'0 0.0
2016-Feb-04 14:33N 48°41' W 123°24'0 0.0
2016-Feb-04 13:33N 48°41' W 123°24'3 3.3
2016-Feb-04 12:33N 48°43' W 123°21'1212.3
2016-Feb-04 11:33N 48°56' W 123°18'1212.1
2016-Feb-04 10:34N 49°08' W 123°15'9 8.5
2016-Feb-04 09:34N 49°09' W 123°02'0 0.0
2016-Feb-04 08:33N 49°09' W 123°02'0 0.2
2016-Feb-04 07:34N 49°09' W 123°02'1111.4
2016-Feb-04 06:33N 49°06' W 123°19'1413.8
2016-Feb-04 05:34N 48°52' W 123°18'1110.4
2016-Feb-04 04:28N 48°41' W 123°24'0 0.0
2016-Feb-04 03:33N 48°41' W 123°24'3 2.6
2016-Feb-04 02:33N 48°43' W 123°21'1312.7
2016-Feb-04 01:33N 48°55' W 123°18'1312.8
2016-Feb-04 00:34N 49°08' W 123°14'8 8.1
2016-Feb-03 23:33N 49°09' W 123°02'0 0.0
2016-Feb-03 22:33N 49°09' W 123°02'1010.3
2016-Feb-03 21:34N 49°06' W 123°18'1413.6
2016-Feb-03 20:33N 48°53' W 123°18'12 2.8
2016-Feb-03 16:07N 48°41' W 123°24'0 0.0
2016-Feb-03 13:05N 48°41' W 123°24'3 5.5
2016-Feb-03 12:33N 48°43' W 123°21'1212.3
2016-Feb-03 11:33N 48°55' W 123°19'1211.9
2016-Feb-03 10:33N 49°07' W 123°16'9 9.5
2016-Feb-03 09:33N 49°09' W 123°02'0 0.0
2016-Feb-03 08:33N 49°09' W 123°02'0 0.3
2016-Feb-03 07:33N 49°09' W 123°02'1212.1
2016-Feb-03 06:34N 49°05' W 123°20'1313.4
2016-Feb-03 05:33N 48°52' W 123°20'11 8.6
2016-Feb-03 04:19N 48°41' W 123°24'0 0.0
2016-Feb-03 03:33N 48°41' W 123°24'2 1.7
2016-Feb-03 02:33N 48°42' W 123°22'1313.1
2016-Feb-03 01:33N 48°55' W 123°18'1312.8
2016-Feb-03 00:33N 49°07' W 123°15'9 8.9
2016-Feb-02 23:34N 49°09' W 123°02'0 0.0
2016-Feb-02 22:34N 49°09' W 123°02'1010.3
2016-Feb-02 21:33N 49°06' W 123°17'1413.9
2016-Feb-02 20:34N 48°53' W 123°18'1212.1
2016-Feb-02 19:33N 48°41' W 123°24'0 0.0
2016-Feb-02 18:24N 48°41' W 123°24'0 0.0
2016-Feb-02 17:20N 48°41' W 123°24'0 0.0
2016-Feb-02 15:31N 48°41' W 123°24'0 0.0
2016-Feb-02 14:30N 48°41' W 123°24'2 1.1
2016-Feb-02 12:32N 48°42' W 123°22'1312.8
2016-Feb-02 11:33N 48°55' W 123°18'1312.5
2016-Feb-02 10:33N 49°07' W 123°16'10 9.5
2016-Feb-02 09:33N 49°09' W 123°02'0 0.0
2016-Feb-02 08:33N 49°09' W 123°02'0 0.2
2016-Feb-02 07:33N 49°09' W 123°02'1211.8
2016-Feb-02 06:33N 49°05' W 123°20'1313.3
2016-Feb-02 05:34N 48°52' W 123°18'1111.0
2016-Feb-02 04:32N 48°42' W 123°24'0 0.2
2016-Feb-02 03:33N 48°41' W 123°24'1 1.2
2016-Feb-02 02:33N 48°42' W 123°23'1313.2
2016-Feb-02 01:33N 48°54' W 123°18'1413.8
2016-Feb-02 00:34N 49°08' W 123°14'8 7.6
2016-Feb-01 23:33N 49°09' W 123°02'0 0.0
2016-Feb-01 22:33N 49°09' W 123°02'1110.6
2016-Feb-01 21:34N 49°06' W 123°18'1514.8
2016-Feb-01 20:33N 48°51' W 123°20'1110.5
2016-Feb-01 19:33N 48°41' W 123°24'0 0.0
2016-Feb-01 18:33N 48°41' W 123°24'0 0.0
2016-Feb-01 17:33N 48°41' W 123°24'0 0.0
2016-Feb-01 16:32N 48°41' W 123°24'0 0.0
2016-Feb-01 15:31N 48°41' W 123°24'0 0.0
2016-Feb-01 14:28N 48°41' W 123°24'0 0.0
2016-Feb-01 13:33N 48°41' W 123°24'0 0.0
2016-Feb-01 12:32N 48°41' W 123°24'0 0.0
2016-Feb-01 11:33N 48°41' W 123°24'4 4.4
2016-Feb-01 10:34N 48°45' W 123°21'1110.7
2016-Feb-01 09:33N 48°56' W 123°19'1110.9
2016-Feb-01 08:33N 49°06' W 123°18'1010.4
2016-Feb-01 07:33N 49°09' W 123°02'0 0.1
2016-Feb-01 06:34N 49°09' W 123°02'0 0.0
2016-Feb-01 05:33N 49°09' W 123°02'0 0.0
2016-Feb-01 04:34N 49°09' W 123°02'0 0.0
2016-Feb-01 03:33N 49°09' W 123°02'0 0.0
2016-Feb-01 02:33N 49°09' W 123°02'0 0.0
2016-Feb-01 01:33N 49°09' W 123°02'0 0.0
2016-Feb-01 00:33N 49°09' W 123°02'0 0.0
2016-Jan-31 23:33N 49°09' W 123°02'0 0.0
2016-Jan-31 22:33N 49°09' W 123°02'0 0.0
2016-Jan-31 21:33N 49°09' W 123°02'0 0.0
2016-Jan-31 20:33N 49°09' W 123°02'0 0.0
2016-Jan-31 19:33N 49°09' W 123°02'0 0.0
2016-Jan-31 18:34N 49°09' W 123°02'0 0.0
2016-Jan-31 17:33N 49°09' W 123°02'2 2.3
2016-Jan-31 16:33N 49°07' W 123°05'1110.6
2016-Jan-31 15:33N 49°03' W 123°20'1212.4
2016-Jan-31 14:33N 48°50' W 123°21'9 9.2
2016-Jan-31 13:33N 48°41' W 123°24'0 0.1
2016-Jan-31 12:23N 48°41' W 123°24'0 0.0
2016-Jan-31 11:32N 48°41' W 123°24'7 7.1
2016-Jan-31 10:33N 48°48' W 123°21'9 9.1
2016-Jan-31 09:34N 48°57' W 123°18'10 9.9
2016-Jan-31 08:33N 49°07' W 123°17'1010.0
2016-Jan-31 07:33N 49°09' W 123°02'0 0.1
2016-Jan-31 06:33N 49°09' W 123°02'0 0.0
2016-Jan-31 05:33N 49°09' W 123°02'0 0.0
2016-Jan-31 04:33N 49°09' W 123°02'0 0.0
2016-Jan-31 03:33N 49°09' W 123°02'0 0.0
2016-Jan-31 02:33N 49°09' W 123°02'0 0.0
2016-Jan-31 01:34N 49°09' W 123°02'0 0.0
2016-Jan-31 00:33N 49°09' W 123°02'0 0.0
2016-Jan-30 23:33N 49°09' W 123°02'0 0.0
2016-Jan-30 22:33N 49°09' W 123°02'1010.2
2016-Jan-30 21:33N 49°07' W 123°17'1413.9
2016-Jan-30 20:33N 48°53' W 123°18'1212.1
2016-Jan-30 19:34N 48°41' W 123°24'0 0.0
2016-Jan-30 18:12N 48°41' W 123°24'0 0.0
2016-Jan-30 17:32N 48°41' W 123°24'0 0.0
2016-Jan-30 15:18N 48°41' W 123°24'0 0.0
2016-Jan-30 13:22N 48°41' W 123°24'0 0.2
2016-Jan-30 12:33N 48°41' W 123°24'1111.4
2016-Jan-30 11:33N 48°52' W 123°18'1514.6
2016-Jan-30 10:33N 49°07' W 123°17'1010.1
2016-Jan-30 09:33N 49°09' W 123°02'0 0.0
2016-Jan-30 08:34N 49°09' W 123°02'0 0.0
2016-Jan-30 07:33N 49°09' W 123°02'1110.7
2016-Jan-30 06:34N 49°06' W 123°18'1312.9
2016-Jan-30 05:34N 48°53' W 123°18'1312.6
2016-Jan-30 04:34N 48°41' W 123°24'0 0.1
2016-Jan-30 03:17N 48°41' W 123°24'1 1.6
2016-Jan-30 02:33N 48°42' W 123°23'1211.6
2016-Jan-30 01:34N 48°53' W 123°18'1414.3
2016-Jan-30 00:34N 49°07' W 123°16'9 9.5
2016-Jan-29 23:33N 49°09' W 123°02'0 0.0
2016-Jan-29 22:33N 49°09' W 123°02'1010.3
2016-Jan-29 21:33N 49°06' W 123°18'1414.5
2016-Jan-29 20:33N 48°52' W 123°18'11 8.0
2016-Jan-29 19:08N 48°41' W 123°24'0 0.0
2016-Jan-29 18:32N 48°41' W 123°24'0 0.0
2016-Jan-29 17:31N 48°41' W 123°24'0 0.0
2016-Jan-29 16:31N 48°41' W 123°24'0 0.0
2016-Jan-29 15:20N 48°41' W 123°24'0 0.0
2016-Jan-29 14:32N 48°41' W 123°24'0 0.0
2016-Jan-29 13:31N 48°41' W 123°24'1 1.2
2016-Jan-29 12:33N 48°42' W 123°23'1312.8
2016-Jan-29 11:34N 48°54' W 123°18'1313.3
2016-Jan-29 10:34N 49°07' W 123°16'9 9.1
2016-Jan-29 09:33N 49°09' W 123°02'0 0.0
2016-Jan-29 08:33N 49°09' W 123°02'0 0.0
2016-Jan-29 07:34N 49°09' W 123°02'10 9.6
2016-Jan-29 06:33N 49°07' W 123°17'1414.3
2016-Jan-29 05:33N 48°53' W 123°18'1211.9
2016-Jan-29 04:33N 48°41' W 123°24'0 0.0
2016-Jan-29 03:33N 48°41' W 123°24'0 0.3
2016-Jan-29 02:33N 48°42' W 123°24'1212.0
2016-Jan-29 01:33N 48°53' W 123°18'1414.2
2016-Jan-29 00:33N 49°07' W 123°17'10 9.5
2016-Jan-28 23:33N 49°09' W 123°02'0 0.0
2016-Jan-28 22:33N 49°09' W 123°02'8 8.1
2016-Jan-28 21:33N 49°08' W 123°15'1413.7
2016-Jan-28 20:33N 48°54' W 123°18'1313.4
2016-Jan-28 19:34N 48°41' W 123°24'0 0.2
2016-Jan-28 18:28N 48°41' W 123°24'0 0.0
2016-Jan-28 17:32N 48°41' W 123°24'0 0.0
2016-Jan-28 16:30N 48°41' W 123°24'0 0.0
2016-Jan-28 15:33N 48°41' W 123°24'0 0.0
2016-Jan-28 14:33N 48°41' W 123°24'0 0.0
2016-Jan-28 13:33N 48°41' W 123°24'3 2.7
2016-Jan-28 12:33N 48°43' W 123°21'9 9.2
2016-Jan-28 11:34N 48°52' W 123°19'1313.2
2016-Jan-28 10:33N 49°05' W 123°20'1312.6
2016-Jan-28 09:33N 49°09' W 123°02'0 0.0
2016-Jan-28 08:33N 49°09' W 123°02'2 1.6
2016-Jan-28 07:33N 49°08' W 123°04'1110.6
2016-Jan-28 06:33N 49°05' W 123°20'1313.1
2016-Jan-28 05:34N 48°51' W 123°21'10 9.6
2016-Jan-28 04:29N 48°41' W 123°24'0 0.0
2016-Jan-28 03:33N 48°41' W 123°24'2 1.8
2016-Jan-28 02:33N 48°42' W 123°22'1313.1
2016-Jan-28 01:34N 48°55' W 123°18'  

Dump ship's entire track history